CheckWX is a tool to help pilots better visualize weather data.  It is not intended as a substitute for an official pre-flight weather briefing.

13:54:14 UTC

6I2 METAR
Lebanon Springfield-George Hoerter Field Airport
Springfield, Kentucky, USA
Current

34 mins ago

K6I2 211320Z AUTO 19007KT 10SM CLR 23/17 A3031 RMK AO2
Observed
Sep-21 @ 13:20 UTC
Wind
  • 190° at 7 KTS
Visibility
10 SM
Flight Rules
VFR
Cloud Levels
  • Clear skies
Temperature
23°C / 73°F
Dewpoint
17°C / 63°F
Humidity
69%
Altimeter
30.31" Hg
Pressure
1026.42 hPa
Previous

54 mins ago

K6I2 211300Z AUTO 18007KT 10SM CLR 23/17 A3030 RMK AO2
Observed
Sep-21 @ 13:00 UTC
Wind
  • 180° at 7 KTS
Visibility
10 SM
Flight Rules
VFR
Cloud Levels
  • Clear skies
Temperature
23°C / 73°F
Dewpoint
17°C / 63°F
Humidity
69%
Altimeter
30.3" Hg
Pressure
1026.12 hPa
Previous

1 hour ago

K6I2 211240Z AUTO 17006KT 10SM CLR 22/17 A3030 RMK AO2
Observed
Sep-21 @ 12:40 UTC
Wind
  • 170° at 6 KTS
Visibility
10 SM
Flight Rules
VFR
Cloud Levels
  • Clear skies
Temperature
22°C / 72°F
Dewpoint
17°C / 63°F
Humidity
73%
Altimeter
30.3" Hg
Pressure
1026.12 hPa